createdAt,value
2022-12-06T00:00:43.146Z,96.28
2022-12-06T00:03:58.797Z,87.17
2022-12-06T00:07:11.558Z,87.38
2022-12-06T00:10:23.473Z,83.80
2022-12-06T00:13:35.917Z,97.70
2022-12-06T00:16:47.631Z,105.40
2022-12-06T00:19:59.802Z,95.15
2022-12-06T00:23:11.797Z,96.48
2022-12-06T00:26:25.529Z,96.23
2022-12-06T00:29:37.453Z,98.05
2022-12-06T00:32:49.191Z,100.13
2022-12-06T00:36:05.870Z,99.90
2022-12-06T00:39:19.852Z,88.75
2022-12-06T00:42:31.600Z,95.73
2022-12-06T00:45:43.211Z,94.38
2022-12-06T00:48:56.179Z,94.38
2022-12-06T00:52:07.985Z,100.78
2022-12-06T00:55:19.761Z,93.42
2022-12-06T00:58:31.704Z,98.30
2022-12-06T01:01:43.737Z,98.63
2022-12-06T01:04:55.869Z,85.10
2022-12-06T01:08:07.906Z,96.33
2022-12-06T01:11:22.179Z,99.73
2022-12-06T01:14:33.971Z,108.58
2022-12-06T01:17:45.879Z,97.98
2022-12-06T01:20:57.541Z,92.90
2022-12-06T01:24:10.966Z,89.15
2022-12-06T01:27:22.898Z,95.70
2022-12-06T01:30:35.305Z,97.78
2022-12-06T01:33:47.648Z,101.45
2022-12-06T01:36:59.462Z,107.25
2022-12-06T01:40:14.215Z,95.10
2022-12-06T01:43:41.750Z,104.73
2022-12-06T01:50:07.605Z,96.68
2022-12-06T01:53:25.258Z,98.73
2022-12-06T01:56:33.657Z,91.95
2022-12-06T01:59:46.083Z,93.63
2022-12-06T02:02:59.633Z,89.58
2022-12-06T02:06:14.664Z,95.13
2022-12-06T02:09:28.313Z,93.05
2022-12-06T02:12:39.984Z,92.35
2022-12-06T02:15:58.760Z,84.23
2022-12-06T02:19:19.048Z,73.63
2022-12-06T02:22:49.264Z,78.95
2022-12-06T02:26:26.046Z,77.18
2022-12-06T02:30:11.091Z,85.45
2022-12-06T02:33:29.823Z,88.13
2022-12-06T02:36:48.053Z,81.08
2022-12-06T02:40:05.531Z,83.58
2022-12-06T02:43:21.701Z,82.25
2022-12-06T02:46:36.847Z,88.50
2022-12-06T02:49:55.012Z,94.10
2022-12-06T02:53:10.160Z,93.23
2022-12-06T02:56:23.275Z,96.55
2022-12-06T02:59:35.210Z,86.30
2022-12-06T03:02:47.250Z,87.00
2022-12-06T03:06:13.177Z,86.05
2022-12-06T03:09:43.112Z,86.50
2022-12-06T03:13:00.865Z,88.60
2022-12-06T03:16:18.767Z,91.05
2022-12-06T03:19:33.938Z,86.30
2022-12-06T03:22:50.199Z,81.40
2022-12-06T03:26:04.968Z,80.47
2022-12-06T03:29:19.734Z,82.03
2022-12-06T03:32:36.153Z,76.88
2022-12-06T03:35:50.416Z,76.30
2022-12-06T03:39:05.205Z,71.48
2022-12-06T03:42:17.962Z,71.08
2022-12-06T03:45:34.637Z,68.23
2022-12-06T03:48:50.848Z,67.28
2022-12-06T03:52:03.698Z,72.60
2022-12-06T03:55:16.521Z,70.00
2022-12-06T03:58:28.335Z,68.95
2022-12-06T04:01:41.188Z,66.28
2022-12-06T04:04:53.432Z,61.38
2022-12-06T04:08:05.214Z,64.75
2022-12-06T04:11:17.320Z,70.23
2022-12-06T04:14:31.869Z,72.50
2022-12-06T04:18:01.533Z,65.93
2022-12-06T04:21:27.820Z,65.03
2022-12-06T04:24:39.774Z,66.78
2022-12-06T04:28:05.922Z,65.90
2022-12-06T04:31:32.731Z,73.10
2022-12-06T04:34:59.146Z,73.15
2022-12-06T04:38:25.469Z,70.28
2022-12-06T04:41:51.908Z,78.95
2022-12-06T04:45:03.759Z,76.90
2022-12-06T04:48:15.479Z,69.63
2022-12-06T04:51:27.427Z,69.28
2022-12-06T04:54:40.261Z,76.98
2022-12-06T04:57:52.464Z,74.50
2022-12-06T05:01:04.300Z,76.48
2022-12-06T05:04:16.279Z,71.53
2022-12-06T05:07:28.310Z,77.30
2022-12-06T05:10:40.204Z,81.58
2022-12-06T05:13:52.013Z,89.73
2022-12-06T05:17:03.722Z,83.33
2022-12-06T05:20:18.289Z,91.23
2022-12-06T05:23:30.550Z,94.38
2022-12-06T05:26:42.616Z,88.97
2022-12-06T05:29:54.333Z,91.60
2022-12-06T05:33:06.290Z,94.55
2022-12-06T05:36:23.020Z,91.25
2022-12-06T05:39:34.732Z,82.03
2022-12-06T05:42:49.762Z,87.65
2022-12-06T05:46:02.869Z,90.15
2022-12-06T05:49:14.841Z,85.55
2022-12-06T05:52:26.918Z,78.85
2022-12-06T05:55:38.797Z,85.48
2022-12-06T05:58:50.940Z,82.90
2022-12-06T06:02:02.849Z,78.15
2022-12-06T06:05:16.185Z,77.85
2022-12-06T06:08:28.690Z,79.55
2022-12-06T06:11:40.360Z,78.58
2022-12-06T06:14:53.265Z,77.25
2022-12-06T06:18:04.995Z,78.83
2022-12-06T06:21:16.986Z,72.20
2022-12-06T06:24:28.895Z,243.43
2022-12-06T06:27:43.016Z,110.83
2022-12-06T06:30:55.165Z,82.88
2022-12-06T06:34:07.280Z,71.75
2022-12-06T06:37:19.126Z,69.78
2022-12-06T06:40:30.850Z,62.95
2022-12-06T06:43:43.971Z,68.98
2022-12-06T06:46:55.643Z,64.53
2022-12-06T06:50:07.398Z,68.70
2022-12-06T06:53:19.254Z,59.93
2022-12-06T06:56:31.210Z,67.98
2022-12-06T06:59:43.070Z,60.23
2022-12-06T07:02:54.849Z,84.45
2022-12-06T07:06:08.939Z,53.93
2022-12-06T07:09:20.953Z,55.38
2022-12-06T07:12:32.583Z,46.53
2022-12-06T07:15:44.887Z,73.45
2022-12-06T07:18:56.745Z,72.78
2022-12-06T07:22:08.351Z,46.20
2022-12-06T07:25:20.755Z,46.08
2022-12-06T07:28:32.440Z,43.35
2022-12-06T07:31:44.491Z,42.25
2022-12-06T07:34:56.115Z,38.30
2022-12-06T07:38:08.872Z,37.90
2022-12-06T07:41:35.814Z,37.35
2022-12-06T07:45:07.515Z,32.43
2022-12-06T07:48:20.933Z,32.80
2022-12-06T07:51:32.613Z,36.33
2022-12-06T07:54:44.213Z,33.68
2022-12-06T07:57:55.824Z,37.13
2022-12-06T08:01:08.329Z,35.55
2022-12-06T08:04:20.567Z,35.23
2022-12-06T08:07:33.060Z,34.78
2022-12-06T08:10:44.793Z,33.08
2022-12-06T08:13:56.626Z,33.00
2022-12-06T08:17:08.714Z,32.60
2022-12-06T08:20:20.742Z,35.63
2022-12-06T08:23:34.421Z,38.20
2022-12-06T08:26:46.170Z,31.83
2022-12-06T08:29:58.174Z,36.88
2022-12-06T08:33:10.135Z,33.25
2022-12-06T08:36:24.628Z,33.28
2022-12-06T08:39:36.605Z,29.88
2022-12-06T08:42:48.300Z,33.18
2022-12-06T08:46:00.177Z,33.25
2022-12-06T08:49:12.219Z,33.98
2022-12-06T08:52:24.230Z,33.88
2022-12-06T08:55:35.959Z,31.05
2022-12-06T08:58:47.670Z,31.45
2022-12-06T09:01:59.441Z,44.20
2022-12-06T09:05:12.379Z,56.53
2022-12-06T09:08:24.191Z,193.15
2022-12-06T09:11:36.341Z,46.00
2022-12-06T09:14:48.235Z,37.68
2022-12-06T09:17:59.918Z,31.93
2022-12-06T09:21:15.944Z,31.30
2022-12-06T09:24:27.961Z,32.50
2022-12-06T09:27:39.653Z,32.80
2022-12-06T09:30:51.343Z,34.68
2022-12-06T09:34:03.211Z,30.58
2022-12-06T09:37:18.902Z,36.78
2022-12-06T09:40:42.718Z,36.75
2022-12-06T09:44:04.044Z,114.35
2022-12-06T09:47:25.397Z,40.48
2022-12-06T09:50:43.555Z,36.85
2022-12-06T09:54:09.167Z,37.18
2022-12-06T09:57:26.609Z,33.15
2022-12-06T10:00:44.742Z,31.85
2022-12-06T10:04:24.647Z,31.35
2022-12-06T10:07:42.054Z,31.70
2022-12-06T10:11:08.727Z,32.08
2022-12-06T10:14:30.261Z,32.35
2022-12-06T10:17:53.531Z,29.98
2022-12-06T10:21:13.585Z,29.80
2022-12-06T10:24:40.409Z,30.93
2022-12-06T10:28:00.677Z,35.70
2022-12-06T10:31:21.090Z,33.58
2022-12-06T10:34:49.275Z,50.28
2022-12-06T10:38:13.396Z,37.48
2022-12-06T10:41:30.781Z,32.25
2022-12-06T10:44:47.742Z,35.00
2022-12-06T10:48:02.783Z,31.25
2022-12-06T10:51:19.521Z,32.53
2022-12-06T10:54:37.848Z,31.15
2022-12-06T10:57:56.107Z,35.40
2022-12-06T11:01:11.993Z,30.30
2022-12-06T11:04:29.718Z,29.65
2022-12-06T11:07:45.428Z,32.70
2022-12-06T11:10:59.386Z,31.80
2022-12-06T11:14:20.457Z,232.25
2022-12-06T11:17:36.401Z,39.55
2022-12-06T11:20:56.877Z,31.95
2022-12-06T11:24:14.485Z,30.40
2022-12-06T11:27:32.087Z,29.83
2022-12-06T11:30:44.050Z,35.45
2022-12-06T11:33:56.151Z,31.28
2022-12-06T11:37:10.406Z,32.93
2022-12-06T11:40:29.182Z,31.93
2022-12-06T11:43:41.902Z,33.90
2022-12-06T11:46:58.154Z,34.08
2022-12-06T11:50:17.173Z,31.98
2022-12-06T11:53:34.798Z,32.28
2022-12-06T11:56:46.717Z,35.25
2022-12-06T12:00:22.873Z,33.40
2022-12-06T12:03:38.955Z,34.73
2022-12-06T12:06:52.337Z,31.27
2022-12-06T12:10:08.792Z,32.48
2022-12-06T12:13:44.050Z,31.05
2022-12-06T12:17:00.787Z,30.25
2022-12-06T12:20:24.506Z,32.10
2022-12-06T12:23:40.678Z,29.95
2022-12-06T12:26:52.654Z,34.58
2022-12-06T12:30:32.996Z,32.08
2022-12-06T12:33:44.921Z,32.65
2022-12-06T12:37:00.799Z,30.28
2022-12-06T12:40:27.034Z,30.78
2022-12-06T12:43:40.206Z,29.78
2022-12-06T12:46:55.216Z,30.10
2022-12-06T12:50:23.970Z,30.13
2022-12-06T12:53:40.479Z,28.48
2022-12-06T12:56:52.752Z,27.28
2022-12-06T13:00:06.069Z,26.30
2022-12-06T13:06:45.577Z,27.30
2022-12-06T13:10:05.014Z,27.70
2022-12-06T13:13:25.336Z,26.83
2022-12-06T13:16:42.382Z,27.55
2022-12-06T13:23:10.223Z,27.28
2022-12-06T13:26:27.258Z,28.23
2022-12-06T13:32:57.148Z,27.38
2022-12-06T13:39:50.685Z,25.90
2022-12-06T13:43:02.728Z,28.10
2022-12-06T13:46:37.756Z,26.35
2022-12-06T13:49:51.597Z,29.25
2022-12-06T13:53:09.721Z,21.80
2022-12-06T13:56:39.049Z,16.63
2022-12-06T13:59:50.969Z,13.63
2022-12-06T14:03:03.935Z,12.88
2022-12-06T14:06:17.568Z,11.30
2022-12-06T14:09:31.083Z,10.05
2022-12-06T14:12:43.198Z,9.95
2022-12-06T14:15:57.856Z,8.40
2022-12-06T14:19:21.585Z,9.80
2022-12-06T14:22:37.927Z,10.90
2022-12-06T14:25:49.922Z,10.03
2022-12-06T14:29:04.707Z,12.15
2022-12-06T14:32:17.132Z,10.43
2022-12-06T14:35:34.335Z,8.65
2022-12-06T14:38:46.388Z,7.63
2022-12-06T14:42:19.127Z,10.03
2022-12-06T14:45:31.175Z,9.25
2022-12-06T14:48:58.636Z,9.80
2022-12-06T14:52:22.540Z,9.30
2022-12-06T14:55:37.187Z,10.10
2022-12-06T14:58:49.510Z,10.58
2022-12-06T15:02:02.047Z,12.48
2022-12-06T15:05:42.151Z,10.35
2022-12-06T15:08:56.098Z,13.03
2022-12-06T15:12:42.130Z,11.13
2022-12-06T15:15:58.895Z,9.90
2022-12-06T15:19:14.319Z,12.65
2022-12-06T15:22:29.486Z,12.48
2022-12-06T15:25:41.453Z,13.58
2022-12-06T15:28:54.411Z,10.75
2022-12-06T15:32:06.618Z,12.83
2022-12-06T15:35:23.842Z,11.95
2022-12-06T15:38:35.894Z,11.33
2022-12-06T15:41:48.315Z,15.50
2022-12-06T15:45:01.398Z,14.93
2022-12-06T15:48:14.837Z,12.80
2022-12-06T15:51:30.068Z,13.38
2022-12-06T15:54:42.075Z,18.18
2022-12-06T15:57:54.328Z,16.18
2022-12-06T16:01:06.683Z,15.38
2022-12-06T16:04:24.365Z,14.05
2022-12-06T16:07:36.389Z,23.23
2022-12-06T16:11:11.222Z,18.25
2022-12-06T16:14:02.615Z,16.80
2022-12-06T16:17:14.780Z,15.23
2022-12-06T16:20:37.905Z,14.98
2022-12-06T16:24:13.824Z,17.68
2022-12-06T16:27:19.041Z,15.38
2022-12-06T16:30:40.126Z,17.50
2022-12-06T16:33:52.267Z,17.25
2022-12-06T16:37:07.636Z,16.05
2022-12-06T16:40:25.548Z,17.88
2022-12-06T16:43:37.765Z,15.33
2022-12-06T16:46:50.642Z,19.05
2022-12-06T16:50:03.065Z,18.90
2022-12-06T16:53:16.607Z,17.00
2022-12-06T16:56:28.578Z,19.88
2022-12-06T16:59:42.526Z,17.20
2022-12-06T17:02:55.270Z,18.33
2022-12-06T17:06:07.783Z,18.50
2022-12-06T17:09:20.374Z,17.35
2022-12-06T17:12:32.980Z,17.35
2022-12-06T17:15:44.943Z,17.28
2022-12-06T17:18:57.266Z,17.83
2022-12-06T17:22:09.417Z,17.35
2022-12-06T17:25:22.152Z,16.35
2022-12-06T17:28:34.933Z,17.13
2022-12-06T17:31:47.258Z,18.30
2022-12-06T17:34:59.835Z,16.98
2022-12-06T17:38:12.128Z,15.55
2022-12-06T17:41:45.821Z,15.98
2022-12-06T17:44:57.768Z,16.28
2022-12-06T17:48:10.591Z,17.98
2022-12-06T17:51:22.869Z,15.55
2022-12-06T17:54:35.301Z,18.20
2022-12-06T17:57:47.155Z,14.75
2022-12-06T18:00:59.443Z,15.35
2022-12-06T18:04:13.749Z,14.68
2022-12-06T18:07:26.413Z,16.15
2022-12-06T18:10:38.204Z,18.43
2022-12-06T18:13:51.086Z,15.13
2022-12-06T18:17:03.376Z,17.83
2022-12-06T18:20:17.090Z,18.48
2022-12-06T18:23:29.165Z,14.83
2022-12-06T18:26:41.837Z,15.38
2022-12-06T18:29:53.915Z,14.98
2022-12-06T18:33:08.618Z,16.58
2022-12-06T18:36:21.258Z,20.70
2022-12-06T18:39:33.278Z,17.33
2022-12-06T18:42:45.488Z,16.48
2022-12-06T18:46:04.979Z,16.13
2022-12-06T18:49:18.522Z,19.08
2022-12-06T18:52:30.703Z,14.08
2022-12-06T18:55:42.912Z,18.33
2022-12-06T18:58:55.638Z,17.20
2022-12-06T19:02:07.727Z,17.58
2022-12-06T19:05:39.394Z,16.78
2022-12-06T19:08:34.181Z,16.33
2022-12-06T19:11:49.480Z,14.83
2022-12-06T19:15:01.595Z,16.10
2022-12-06T19:18:13.829Z,17.78
2022-12-06T19:21:26.228Z,14.45
2022-12-06T19:24:38.231Z,12.83
2022-12-06T19:27:50.405Z,15.73
2022-12-06T19:31:08.588Z,11.98
2022-12-06T19:34:26.184Z,12.45
2022-12-06T19:37:38.289Z,13.40
2022-12-06T19:40:50.398Z,12.98
2022-12-06T19:44:21.984Z,12.80
2022-12-06T19:47:34.037Z,16.53
2022-12-06T19:50:46.133Z,14.00
2022-12-06T19:53:58.957Z,15.40
2022-12-06T19:57:11.809Z,17.83
2022-12-06T20:00:24.463Z,13.58
2022-12-06T20:03:36.438Z,17.03
2022-12-06T20:06:49.182Z,17.13
2022-12-06T20:10:01.517Z,16.55
2022-12-06T20:13:13.812Z,16.85
2022-12-06T20:16:25.748Z,16.13
2022-12-06T20:19:37.989Z,16.25
2022-12-06T20:22:50.035Z,15.15
2022-12-06T20:26:03.932Z,18.40
2022-12-06T20:29:17.990Z,16.68
2022-12-06T20:32:29.891Z,17.93
2022-12-06T20:35:44.084Z,15.73
2022-12-06T20:38:56.676Z,14.88
2022-12-06T20:42:08.822Z,12.20
2022-12-06T20:45:21.730Z,17.33
2022-12-06T20:48:33.583Z,18.65
2022-12-06T20:51:51.149Z,16.78
2022-12-06T20:55:00.000Z,14.20
2022-12-06T20:58:12.146Z,15.45
2022-12-06T21:01:27.584Z,19.53
2022-12-06T21:04:39.589Z,14.50
2022-12-06T21:07:51.584Z,17.43
2022-12-06T21:14:20.761Z,15.48
2022-12-06T21:17:32.625Z,19.00
2022-12-06T21:20:46.608Z,15.70
2022-12-06T21:23:58.759Z,16.33
2022-12-06T21:27:10.565Z,14.83
2022-12-06T21:30:23.424Z,14.43
2022-12-06T21:33:35.333Z,14.88
2022-12-06T21:36:47.719Z,12.43
2022-12-06T21:39:59.839Z,13.85
2022-12-06T21:43:12.902Z,12.28
2022-12-06T21:46:27.992Z,11.10
2022-12-06T21:49:40.081Z,13.20
2022-12-06T21:52:51.954Z,10.15
2022-12-06T21:56:03.957Z,11.48
2022-12-06T21:59:15.860Z,14.90
2022-12-06T22:02:27.858Z,12.55
2022-12-06T22:05:39.999Z,12.78
2022-12-06T22:08:55.859Z,14.95
2022-12-06T22:12:07.961Z,12.85
2022-12-06T22:15:20.161Z,12.53
2022-12-06T22:18:33.140Z,13.25
2022-12-06T22:21:44.952Z,15.18
2022-12-06T22:24:56.834Z,14.15
2022-12-06T22:28:08.794Z,13.90
2022-12-06T22:31:22.885Z,10.23
2022-12-06T22:34:35.084Z,11.05
2022-12-06T22:37:46.892Z,14.23
2022-12-06T22:41:04.436Z,15.55
2022-12-06T22:44:18.146Z,12.23
2022-12-06T22:47:30.117Z,12.30
2022-12-06T22:50:42.012Z,10.48
2022-12-06T22:53:58.934Z,10.65
2022-12-06T22:57:10.679Z,9.40
2022-12-06T23:00:24.276Z,11.48
2022-12-06T23:03:37.647Z,13.25
2022-12-06T23:06:49.750Z,10.60
2022-12-06T23:10:01.667Z,10.38
2022-12-06T23:13:13.523Z,12.48
2022-12-06T23:16:28.255Z,11.20
2022-12-06T23:19:40.677Z,12.00
2022-12-06T23:22:52.511Z,14.18
2022-12-06T23:26:11.507Z,10.70
2022-12-06T23:29:23.963Z,10.43
2022-12-06T23:32:36.318Z,11.33
2022-12-06T23:35:48.054Z,12.35
2022-12-06T23:39:00.471Z,26.78
2022-12-06T23:42:12.479Z,13.18
2022-12-06T23:45:24.283Z,12.95
2022-12-06T23:48:37.813Z,11.53
2022-12-06T23:51:50.163Z,11.05
2022-12-06T23:55:02.048Z,12.80
2022-12-06T23:58:13.868Z,13.63
